sensor_id;sensor_type;location;lat;lon;timestamp;P1;durP1;ratioP1;P2;durP2;ratioP2
7166;SDS011;3625;51.762;14.320;2022-09-09T00:00:53;3.93;;;3.60;;
7166;SDS011;3625;51.762;14.320;2022-09-09T00:03:30;3.77;;;3.47;;
7166;SDS011;3625;51.762;14.320;2022-09-09T00:06:11;3.87;;;3.57;;
7166;SDS011;3625;51.762;14.320;2022-09-09T00:08:53;4.37;;;3.87;;
7166;SDS011;3625;51.762;14.320;2022-09-09T00:11:34;3.90;;;3.60;;
7166;SDS011;3625;51.762;14.320;2022-09-09T00:14:13;4.40;;;4.00;;
7166;SDS011;3625;51.762;14.320;2022-09-09T00:16:55;4.27;;;3.97;;
7166;SDS011;3625;51.762;14.320;2022-09-09T00:19:32;4.20;;;3.90;;
7166;SDS011;3625;51.762;14.320;2022-09-09T00:22:14;5.00;;;4.40;;
7166;SDS011;3625;51.762;14.320;2022-09-09T00:24:48;3.87;;;3.57;;
7166;SDS011;3625;51.762;14.320;2022-09-09T00:27:24;5.60;;;3.93;;
7166;SDS011;3625;51.762;14.320;2022-09-09T00:30:12;4.37;;;3.97;;
7166;SDS011;3625;51.762;14.320;2022-09-09T00:32:46;4.03;;;3.73;;
7166;SDS011;3625;51.762;14.320;2022-09-09T00:35:17;4.30;;;3.90;;
7166;SDS011;3625;51.762;14.320;2022-09-09T00:37:52;4.00;;;3.63;;
7166;SDS011;3625;51.762;14.320;2022-09-09T00:40:29;5.53;;;3.77;;
7166;SDS011;3625;51.762;14.320;2022-09-09T00:43:09;4.03;;;3.63;;
7166;SDS011;3625;51.762;14.320;2022-09-09T00:45:57;4.20;;;3.73;;
7166;SDS011;3625;51.762;14.320;2022-09-09T00:48:58;4.07;;;3.77;;
7166;SDS011;3625;51.762;14.320;2022-09-09T00:51:43;5.00;;;3.70;;
7166;SDS011;3625;51.762;14.320;2022-09-09T00:54:28;3.60;;;3.30;;
7166;SDS011;3625;51.762;14.320;2022-09-09T00:57:17;4.07;;;3.77;;
7166;SDS011;3625;51.762;14.320;2022-09-09T00:59:56;5.03;;;3.60;;
7166;SDS011;3625;51.762;14.320;2022-09-09T01:02:50;4.03;;;3.73;;
7166;SDS011;3625;51.762;14.320;2022-09-09T01:05:33;4.87;;;3.87;;
7166;SDS011;3625;51.762;14.320;2022-09-09T01:08:17;5.17;;;3.53;;
7166;SDS011;3625;51.762;14.320;2022-09-09T01:11:10;5.10;;;4.10;;
7166;SDS011;3625;51.762;14.320;2022-09-09T01:13:52;3.70;;;3.40;;
7166;SDS011;3625;51.762;14.320;2022-09-09T01:16:32;4.10;;;3.67;;
7166;SDS011;3625;51.762;14.320;2022-09-09T01:19:02;4.03;;;3.73;;
7166;SDS011;3625;51.762;14.320;2022-09-09T01:21:39;3.63;;;3.40;;
7166;SDS011;3625;51.762;14.320;2022-09-09T01:24:25;4.20;;;3.90;;
7166;SDS011;3625;51.762;14.320;2022-09-09T01:27:26;4.00;;;3.60;;
7166;SDS011;3625;51.762;14.320;2022-09-09T01:29:55;4.43;;;4.03;;
7166;SDS011;3625;51.762;14.320;2022-09-09T01:32:39;4.13;;;3.70;;
7166;SDS011;3625;51.762;14.320;2022-09-09T01:35:12;4.93;;;3.43;;
7166;SDS011;3625;51.762;14.320;2022-09-09T01:38:00;4.50;;;3.57;;
7166;SDS011;3625;51.762;14.320;2022-09-09T01:40:30;4.33;;;3.93;;
7166;SDS011;3625;51.762;14.320;2022-09-09T01:43:01;3.73;;;3.43;;
7166;SDS011;3625;51.762;14.320;2022-09-09T01:45:31;3.93;;;3.57;;
7166;SDS011;3625;51.762;14.320;2022-09-09T01:48:01;4.17;;;3.67;;
7166;SDS011;3625;51.762;14.320;2022-09-09T01:50:42;4.57;;;3.53;;
7166;SDS011;3625;51.762;14.320;2022-09-09T01:53:12;4.83;;;3.63;;
7166;SDS011;3625;51.762;14.320;2022-09-09T01:55:46;3.90;;;3.50;;
7166;SDS011;3625;51.762;14.320;2022-09-09T01:58:31;4.30;;;3.83;;
7166;SDS011;3625;51.762;14.320;2022-09-09T02:01:30;3.77;;;3.47;;
7166;SDS011;3625;51.762;14.320;2022-09-09T02:04:19;4.33;;;3.43;;
7166;SDS011;3625;51.762;14.320;2022-09-09T02:07:11;3.93;;;3.63;;
7166;SDS011;3625;51.762;14.320;2022-09-09T02:10:08;4.53;;;3.33;;
7166;SDS011;3625;51.762;14.320;2022-09-09T02:12:52;4.03;;;3.50;;
7166;SDS011;3625;51.762;14.320;2022-09-09T02:15:32;3.60;;;3.30;;
7166;SDS011;3625;51.762;14.320;2022-09-09T02:18:11;3.53;;;3.27;;
7166;SDS011;3625;51.762;14.320;2022-09-09T02:20:45;4.87;;;3.70;;
7166;SDS011;3625;51.762;14.320;2022-09-09T02:23:18;3.77;;;3.47;;
7166;SDS011;3625;51.762;14.320;2022-09-09T02:25:52;4.73;;;3.60;;
7166;SDS011;3625;51.762;14.320;2022-09-09T02:28:26;3.67;;;3.37;;
7166;SDS011;3625;51.762;14.320;2022-09-09T02:31:01;5.83;;;3.40;;
7166;SDS011;3625;51.762;14.320;2022-09-09T02:33:37;5.63;;;3.97;;
7166;SDS011;3625;51.762;14.320;2022-09-09T02:36:13;5.20;;;3.40;;
7166;SDS011;3625;51.762;14.320;2022-09-09T02:38:46;3.67;;;3.30;;
7166;SDS011;3625;51.762;14.320;2022-09-09T02:41:24;3.87;;;3.40;;
7166;SDS011;3625;51.762;14.320;2022-09-09T02:44:00;3.33;;;3.03;;
7166;SDS011;3625;51.762;14.320;2022-09-09T02:46:39;3.97;;;3.57;;
7166;SDS011;3625;51.762;14.320;2022-09-09T02:49:44;3.90;;;3.60;;
7166;SDS011;3625;51.762;14.320;2022-09-09T02:52:30;3.90;;;3.60;;
7166;SDS011;3625;51.762;14.320;2022-09-09T02:55:15;3.90;;;3.60;;
7166;SDS011;3625;51.762;14.320;2022-09-09T02:57:54;3.53;;;3.23;;
7166;SDS011;3625;51.762;14.320;2022-09-09T03:00:27;4.33;;;3.93;;
7166;SDS011;3625;51.762;14.320;2022-09-09T03:03:01;3.93;;;3.60;;
7166;SDS011;3625;51.762;14.320;2022-09-09T03:05:32;4.23;;;3.17;;
7166;SDS011;3625;51.762;14.320;2022-09-09T03:08:01;5.77;;;3.63;;
7166;SDS011;3625;51.762;14.320;2022-09-09T03:10:31;4.03;;;3.63;;
7166;SDS011;3625;51.762;14.320;2022-09-09T03:13:02;4.07;;;3.47;;
7166;SDS011;3625;51.762;14.320;2022-09-09T03:15:36;3.50;;;3.20;;
7166;SDS011;3625;51.762;14.320;2022-09-09T03:18:09;3.73;;;3.43;;
7166;SDS011;3625;51.762;14.320;2022-09-09T03:20:37;3.40;;;3.20;;
7166;SDS011;3625;51.762;14.320;2022-09-09T03:23:09;3.93;;;3.50;;
7166;SDS011;3625;51.762;14.320;2022-09-09T03:25:46;4.10;;;3.53;;
7166;SDS011;3625;51.762;14.320;2022-09-09T03:28:19;3.77;;;3.03;;
7166;SDS011;3625;51.762;14.320;2022-09-09T03:30:49;6.50;;;3.43;;
7166;SDS011;3625;51.762;14.320;2022-09-09T03:33:20;4.77;;;3.40;;
7166;SDS011;3625;51.762;14.320;2022-09-09T03:35:48;4.53;;;3.47;;
7166;SDS011;3625;51.762;14.320;2022-09-09T03:38:19;5.27;;;3.50;;
7166;SDS011;3625;51.762;14.320;2022-09-09T03:40:49;3.60;;;3.10;;
7166;SDS011;3625;51.762;14.320;2022-09-09T03:43:22;4.00;;;3.63;;
7166;SDS011;3625;51.762;14.320;2022-09-09T03:45:53;4.23;;;3.30;;
7166;SDS011;3625;51.762;14.320;2022-09-09T03:48:26;3.83;;;3.00;;
7166;SDS011;3625;51.762;14.320;2022-09-09T03:50:56;5.90;;;3.13;;
7166;SDS011;3625;51.762;14.320;2022-09-09T03:53:30;4.47;;;3.47;;
7166;SDS011;3625;51.762;14.320;2022-09-09T03:56:01;3.67;;;3.27;;
7166;SDS011;3625;51.762;14.320;2022-09-09T03:58:30;3.43;;;3.13;;
7166;SDS011;3625;51.762;14.320;2022-09-09T04:01:06;2.90;;;2.70;;
7166;SDS011;3625;51.762;14.320;2022-09-09T04:03:43;4.10;;;3.80;;
7166;SDS011;3625;51.762;14.320;2022-09-09T04:06:13;3.63;;;3.37;;
7166;SDS011;3625;51.762;14.320;2022-09-09T04:08:45;4.07;;;3.77;;
7166;SDS011;3625;51.762;14.320;2022-09-09T04:11:15;3.60;;;3.30;;
7166;SDS011;3625;51.762;14.320;2022-09-09T04:13:46;4.30;;;3.60;;
7166;SDS011;3625;51.762;14.320;2022-09-09T04:16:30;3.63;;;3.27;;
7166;SDS011;3625;51.762;14.320;2022-09-09T04:21:45;5.20;;;3.30;;
7166;SDS011;3625;51.762;14.320;2022-09-09T04:24:22;3.93;;;3.33;;
7166;SDS011;3625;51.762;14.320;2022-09-09T04:26:57;3.63;;;3.23;;
7166;SDS011;3625;51.762;14.320;2022-09-09T04:29:27;4.17;;;3.03;;
7166;SDS011;3625;51.762;14.320;2022-09-09T04:31:56;3.50;;;3.17;;
7166;SDS011;3625;51.762;14.320;2022-09-09T04:34:26;3.90;;;3.17;;
7166;SDS011;3625;51.762;14.320;2022-09-09T04:36:58;3.77;;;3.40;;
7166;SDS011;3625;51.762;14.320;2022-09-09T04:39:27;4.03;;;3.13;;
7166;SDS011;3625;51.762;14.320;2022-09-09T04:41:58;6.63;;;3.30;;
7166;SDS011;3625;51.762;14.320;2022-09-09T04:44:28;5.60;;;3.20;;
7166;SDS011;3625;51.762;14.320;2022-09-09T04:46:58;3.97;;;3.60;;
7166;SDS011;3625;51.762;14.320;2022-09-09T04:49:28;4.57;;;3.57;;
7166;SDS011;3625;51.762;14.320;2022-09-09T04:51:58;3.57;;;3.27;;
7166;SDS011;3625;51.762;14.320;2022-09-09T04:54:30;3.83;;;3.30;;
7166;SDS011;3625;51.762;14.320;2022-09-09T04:56:59;3.57;;;3.27;;
7166;SDS011;3625;51.762;14.320;2022-09-09T04:59:28;4.07;;;3.07;;
7166;SDS011;3625;51.762;14.320;2022-09-09T05:02:02;4.03;;;3.50;;
7166;SDS011;3625;51.762;14.320;2022-09-09T05:04:40;5.03;;;3.90;;
7166;SDS011;3625;51.762;14.320;2022-09-09T05:07:09;4.83;;;3.57;;
7166;SDS011;3625;51.762;14.320;2022-09-09T05:09:41;4.27;;;3.30;;
7166;SDS011;3625;51.762;14.320;2022-09-09T05:12:15;4.13;;;3.47;;
7166;SDS011;3625;51.762;14.320;2022-09-09T05:14:49;3.70;;;3.30;;
7166;SDS011;3625;51.762;14.320;2022-09-09T05:17:18;3.73;;;3.30;;
7166;SDS011;3625;51.762;14.320;2022-09-09T05:19:49;3.97;;;3.60;;
7166;SDS011;3625;51.762;14.320;2022-09-09T05:22:18;5.40;;;3.80;;
7166;SDS011;3625;51.762;14.320;2022-09-09T05:24:52;5.23;;;4.47;;
7166;SDS011;3625;51.762;14.320;2022-09-09T05:27:21;4.27;;;3.73;;
7166;SDS011;3625;51.762;14.320;2022-09-09T05:29:50;4.40;;;3.83;;
7166;SDS011;3625;51.762;14.320;2022-09-09T05:32:19;6.00;;;4.07;;
7166;SDS011;3625;51.762;14.320;2022-09-09T05:34:49;7.53;;;4.10;;
7166;SDS011;3625;51.762;14.320;2022-09-09T05:37:19;5.70;;;3.40;;
7166;SDS011;3625;51.762;14.320;2022-09-09T05:39:55;4.70;;;4.27;;
7166;SDS011;3625;51.762;14.320;2022-09-09T05:42:28;5.23;;;4.03;;
7166;SDS011;3625;51.762;14.320;2022-09-09T05:45:03;5.63;;;3.90;;
7166;SDS011;3625;51.762;14.320;2022-09-09T05:47:34;5.67;;;3.47;;
7166;SDS011;3625;51.762;14.320;2022-09-09T05:50:08;4.47;;;3.60;;
7166;SDS011;3625;51.762;14.320;2022-09-09T05:52:55;3.93;;;3.43;;
7166;SDS011;3625;51.762;14.320;2022-09-09T05:55:31;3.77;;;3.33;;
7166;SDS011;3625;51.762;14.320;2022-09-09T05:58:02;5.87;;;3.53;;
7166;SDS011;3625;51.762;14.320;2022-09-09T06:00:34;6.80;;;3.80;;
7166;SDS011;3625;51.762;14.320;2022-09-09T06:03:05;5.40;;;3.33;;
7166;SDS011;3625;51.762;14.320;2022-09-09T06:05:49;4.07;;;3.50;;
7166;SDS011;3625;51.762;14.320;2022-09-09T06:08:26;5.90;;;3.53;;
7166;SDS011;3625;51.762;14.320;2022-09-09T06:11:05;5.95;;;3.47;;
7166;SDS011;3625;51.762;14.320;2022-09-09T06:13:37;6.03;;;3.70;;
7166;SDS011;3625;51.762;14.320;2022-09-09T06:16:09;3.53;;;3.23;;
7166;SDS011;3625;51.762;14.320;2022-09-09T06:18:40;4.03;;;3.37;;
7166;SDS011;3625;51.762;14.320;2022-09-09T06:21:14;6.77;;;3.60;;
7166;SDS011;3625;51.762;14.320;2022-09-09T06:23:46;7.00;;;3.33;;
7166;SDS011;3625;51.762;14.320;2022-09-09T06:26:17;3.47;;;2.93;;
7166;SDS011;3625;51.762;14.320;2022-09-09T06:28:49;5.50;;;3.10;;
7166;SDS011;3625;51.762;14.320;2022-09-09T06:31:24;3.90;;;3.60;;
7166;SDS011;3625;51.762;14.320;2022-09-09T06:34:01;3.83;;;3.13;;
7166;SDS011;3625;51.762;14.320;2022-09-09T06:36:35;4.95;;;3.45;;
7166;SDS011;3625;51.762;14.320;2022-09-09T06:39:07;4.03;;;3.00;;
7166;SDS011;3625;51.762;14.320;2022-09-09T06:41:41;3.45;;;2.95;;
7166;SDS011;3625;51.762;14.320;2022-09-09T06:44:33;4.90;;;3.05;;
7166;SDS011;3625;51.762;14.320;2022-09-09T06:47:06;3.38;;;2.90;;
7166;SDS011;3625;51.762;14.320;2022-09-09T06:49:34;5.38;;;2.78;;
7166;SDS011;3625;51.762;14.320;2022-09-09T06:52:08;5.97;;;2.90;;
7166;SDS011;3625;51.762;14.320;2022-09-09T06:54:38;3.08;;;2.63;;
7166;SDS011;3625;51.762;14.320;2022-09-09T06:57:06;3.58;;;2.30;;
7166;SDS011;3625;51.762;14.320;2022-09-09T07:00:01;3.63;;;2.50;;
7166;SDS011;3625;51.762;14.320;2022-09-09T07:02:31;2.75;;;2.40;;
7166;SDS011;3625;51.762;14.320;2022-09-09T07:05:14;4.60;;;2.72;;
7166;SDS011;3625;51.762;14.320;2022-09-09T07:07:47;3.65;;;2.25;;
7166;SDS011;3625;51.762;14.320;2022-09-09T07:10:18;6.40;;;2.60;;
7166;SDS011;3625;51.762;14.320;2022-09-09T07:12:55;3.45;;;2.22;;
7166;SDS011;3625;51.762;14.320;2022-09-09T07:15:29;4.05;;;2.15;;
7166;SDS011;3625;51.762;14.320;2022-09-09T07:18:01;2.40;;;1.90;;
7166;SDS011;3625;51.762;14.320;2022-09-09T07:20:37;3.45;;;2.05;;
7166;SDS011;3625;51.762;14.320;2022-09-09T07:23:10;4.25;;;2.38;;
7166;SDS011;3625;51.762;14.320;2022-09-09T07:25:45;3.10;;;2.00;;
7166;SDS011;3625;51.762;14.320;2022-09-09T07:28:17;2.60;;;2.00;;
7166;SDS011;3625;51.762;14.320;2022-09-09T07:30:54;3.75;;;2.63;;
7166;SDS011;3625;51.762;14.320;2022-09-09T07:33:32;5.72;;;2.60;;
7166;SDS011;3625;51.762;14.320;2022-09-09T07:36:10;4.70;;;2.42;;
7166;SDS011;3625;51.762;14.320;2022-09-09T07:38:51;4.22;;;2.60;;
7166;SDS011;3625;51.762;14.320;2022-09-09T07:41:28;2.45;;;1.98;;
7166;SDS011;3625;51.762;14.320;2022-09-09T07:44:07;3.17;;;1.88;;
7166;SDS011;3625;51.762;14.320;2022-09-09T07:46:45;4.25;;;1.65;;
7166;SDS011;3625;51.762;14.320;2022-09-09T07:49:22;2.47;;;1.73;;
7166;SDS011;3625;51.762;14.320;2022-09-09T07:52:02;2.78;;;1.70;;
7166;SDS011;3625;51.762;14.320;2022-09-09T07:54:35;2.78;;;1.70;;
7166;SDS011;3625;51.762;14.320;2022-09-09T07:57:12;2.10;;;1.52;;
7166;SDS011;3625;51.762;14.320;2022-09-09T07:59:42;3.05;;;1.65;;
7166;SDS011;3625;51.762;14.320;2022-09-09T08:02:15;2.08;;;1.33;;
7166;SDS011;3625;51.762;14.320;2022-09-09T08:04:51;3.78;;;1.60;;
7166;SDS011;3625;51.762;14.320;2022-09-09T08:07:20;2.67;;;1.45;;
7166;SDS011;3625;51.762;14.320;2022-09-09T08:10:00;4.18;;;1.55;;
7166;SDS011;3625;51.762;14.320;2022-09-09T08:12:35;3.67;;;1.40;;
7166;SDS011;3625;51.762;14.320;2022-09-09T08:15:10;2.67;;;1.75;;
7166;SDS011;3625;51.762;14.320;2022-09-09T08:17:42;2.67;;;1.70;;
7166;SDS011;3625;51.762;14.320;2022-09-09T08:20:13;1.83;;;1.27;;
7166;SDS011;3625;51.762;14.320;2022-09-09T08:22:44;2.85;;;1.40;;
7166;SDS011;3625;51.762;14.320;2022-09-09T08:25:14;1.77;;;1.40;;
7166;SDS011;3625;51.762;14.320;2022-09-09T08:27:44;2.20;;;1.35;;
7166;SDS011;3625;51.762;14.320;2022-09-09T08:30:21;2.38;;;1.52;;
7166;SDS011;3625;51.762;14.320;2022-09-09T08:32:50;1.45;;;1.30;;
7166;SDS011;3625;51.762;14.320;2022-09-09T08:35:21;1.50;;;1.40;;
7166;SDS011;3625;51.762;14.320;2022-09-09T08:37:53;2.13;;;1.20;;
7166;SDS011;3625;51.762;14.320;2022-09-09T08:40:28;1.85;;;1.10;;
7166;SDS011;3625;51.762;14.320;2022-09-09T08:43:08;3.90;;;1.30;;
7166;SDS011;3625;51.762;14.320;2022-09-09T08:45:41;2.45;;;1.50;;
7166;SDS011;3625;51.762;14.320;2022-09-09T08:48:34;3.13;;;1.33;;
7166;SDS011;3625;51.762;14.320;2022-09-09T08:51:21;2.97;;;1.20;;
7166;SDS011;3625;51.762;14.320;2022-09-09T08:53:56;2.97;;;1.52;;
7166;SDS011;3625;51.762;14.320;2022-09-09T08:56:35;1.73;;;1.50;;
7166;SDS011;3625;51.762;14.320;2022-09-09T08:59:11;1.40;;;1.10;;
7166;SDS011;3625;51.762;14.320;2022-09-09T09:02:02;2.53;;;1.38;;
7166;SDS011;3625;51.762;14.320;2022-09-09T09:04:58;3.58;;;1.40;;
7166;SDS011;3625;51.762;14.320;2022-09-09T09:07:54;2.63;;;1.30;;
7166;SDS011;3625;51.762;14.320;2022-09-09T09:10:40;2.13;;;1.23;;
7166;SDS011;3625;51.762;14.320;2022-09-09T09:13:22;2.20;;;1.70;;
7166;SDS011;3625;51.762;14.320;2022-09-09T09:16:13;2.28;;;1.30;;
7166;SDS011;3625;51.762;14.320;2022-09-09T09:18:54;3.55;;;1.77;;
7166;SDS011;3625;51.762;14.320;2022-09-09T09:21:32;2.25;;;1.45;;
7166;SDS011;3625;51.762;14.320;2022-09-09T09:24:17;3.20;;;1.30;;
7166;SDS011;3625;51.762;14.320;2022-09-09T09:26:50;1.85;;;1.10;;
7166;SDS011;3625;51.762;14.320;2022-09-09T09:29:24;2.60;;;1.50;;
7166;SDS011;3625;51.762;14.320;2022-09-09T09:31:55;1.98;;;1.20;;
7166;SDS011;3625;51.762;14.320;2022-09-09T09:34:29;3.30;;;1.85;;
7166;SDS011;3625;51.762;14.320;2022-09-09T09:37:01;3.55;;;1.40;;
7166;SDS011;3625;51.762;14.320;2022-09-09T09:39:52;2.97;;;1.70;;
7166;SDS011;3625;51.762;14.320;2022-09-09T09:42:33;3.75;;;1.40;;
7166;SDS011;3625;51.762;14.320;2022-09-09T09:45:12;1.65;;;1.10;;
7166;SDS011;3625;51.762;14.320;2022-09-09T09:48:00;1.80;;;1.13;;
7166;SDS011;3625;51.762;14.320;2022-09-09T09:50:46;1.70;;;1.17;;
7166;SDS011;3625;51.762;14.320;2022-09-09T09:53:38;1.75;;;1.20;;
7166;SDS011;3625;51.762;14.320;2022-09-09T09:56:14;1.55;;;1.05;;
7166;SDS011;3625;51.762;14.320;2022-09-09T09:58:48;1.55;;;1.10;;
7166;SDS011;3625;51.762;14.320;2022-09-09T10:01:31;1.77;;;1.10;;
7166;SDS011;3625;51.762;14.320;2022-09-09T10:04:13;3.33;;;1.83;;
7166;SDS011;3625;51.762;14.320;2022-09-09T10:06:53;3.85;;;1.40;;
7166;SDS011;3625;51.762;14.320;2022-09-09T10:09:36;2.50;;;1.30;;
7166;SDS011;3625;51.762;14.320;2022-09-09T10:12:09;1.95;;;1.40;;
7166;SDS011;3625;51.762;14.320;2022-09-09T10:14:57;2.53;;;1.50;;
7166;SDS011;3625;51.762;14.320;2022-09-09T10:17:58;2.05;;;1.02;;
7166;SDS011;3625;51.762;14.320;2022-09-09T10:24:28;2.03;;;1.40;;
7166;SDS011;3625;51.762;14.320;2022-09-09T10:27:36;2.33;;;1.50;;
7166;SDS011;3625;51.762;14.320;2022-09-09T10:30:34;2.10;;;1.10;;
7166;SDS011;3625;51.762;14.320;2022-09-09T10:33:39;2.42;;;1.20;;
7166;SDS011;3625;51.762;14.320;2022-09-09T10:36:21;2.65;;;1.23;;
7166;SDS011;3625;51.762;14.320;2022-09-09T10:39:02;4.07;;;1.63;;
7166;SDS011;3625;51.762;14.320;2022-09-09T10:41:49;1.67;;;1.10;;
7166;SDS011;3625;51.762;14.320;2022-09-09T10:44:41;2.08;;;1.10;;
7166;SDS011;3625;51.762;14.320;2022-09-09T10:47:47;5.50;;;1.20;;
7166;SDS011;3625;51.762;14.320;2022-09-09T10:51:02;3.03;;;1.70;;
7166;SDS011;3625;51.762;14.320;2022-09-09T10:54:30;3.13;;;1.60;;
7166;SDS011;3625;51.762;14.320;2022-09-09T10:57:43;1.73;;;1.17;;
7166;SDS011;3625;51.762;14.320;2022-09-09T11:00:48;2.03;;;1.10;;
7166;SDS011;3625;51.762;14.320;2022-09-09T11:03:43;3.42;;;1.20;;
7166;SDS011;3625;51.762;14.320;2022-09-09T11:06:28;2.08;;;1.20;;
7166;SDS011;3625;51.762;14.320;2022-09-09T11:09:13;3.28;;;1.25;;
7166;SDS011;3625;51.762;14.320;2022-09-09T11:11:51;2.00;;;1.30;;
7166;SDS011;3625;51.762;14.320;2022-09-09T11:14:32;4.38;;;1.60;;
7166;SDS011;3625;51.762;14.320;2022-09-09T11:17:14;1.95;;;1.10;;
7166;SDS011;3625;51.762;14.320;2022-09-09T11:19:59;1.30;;;0.93;;
7166;SDS011;3625;51.762;14.320;2022-09-09T11:22:42;3.00;;;1.10;;
7166;SDS011;3625;51.762;14.320;2022-09-09T11:25:44;3.00;;;1.02;;
7166;SDS011;3625;51.762;14.320;2022-09-09T11:28:42;3.38;;;1.23;;
7166;SDS011;3625;51.762;14.320;2022-09-09T11:31:41;2.80;;;1.08;;
7166;SDS011;3625;51.762;14.320;2022-09-09T11:34:26;1.90;;;1.00;;
7166;SDS011;3625;51.762;14.320;2022-09-09T11:37:29;1.52;;;1.08;;
7166;SDS011;3625;51.762;14.320;2022-09-09T11:46:50;1.92;;;1.10;;
7166;SDS011;3625;51.762;14.320;2022-09-09T11:49:40;2.13;;;0.80;;
7166;SDS011;3625;51.762;14.320;2022-09-09T11:52:35;0.70;;;0.70;;
7166;SDS011;3625;51.762;14.320;2022-09-09T11:55:24;1.23;;;0.73;;
7166;SDS011;3625;51.762;14.320;2022-09-09T11:58:06;1.33;;;0.80;;
7166;SDS011;3625;51.762;14.320;2022-09-09T12:00:48;1.40;;;0.80;;
7166;SDS011;3625;51.762;14.320;2022-09-09T12:03:41;0.95;;;0.70;;
7166;SDS011;3625;51.762;14.320;2022-09-09T12:06:27;1.00;;;0.73;;
7166;SDS011;3625;51.762;14.320;2022-09-09T12:09:07;1.17;;;0.80;;
7166;SDS011;3625;51.762;14.320;2022-09-09T12:11:49;1.10;;;0.70;;
7166;SDS011;3625;51.762;14.320;2022-09-09T12:14:37;0.57;;;0.57;;
7166;SDS011;3625;51.762;14.320;2022-09-09T12:17:26;1.40;;;0.70;;
7166;SDS011;3625;51.762;14.320;2022-09-09T12:20:04;0.85;;;0.60;;
7166;SDS011;3625;51.762;14.320;2022-09-09T12:22:54;1.33;;;0.70;;
7166;SDS011;3625;51.762;14.320;2022-09-09T12:25:58;1.23;;;0.77;;
7166;SDS011;3625;51.762;14.320;2022-09-09T12:28:58;2.15;;;1.00;;
7166;SDS011;3625;51.762;14.320;2022-09-09T12:31:51;0.90;;;0.75;;
7166;SDS011;3625;51.762;14.320;2022-09-09T12:34:35;1.63;;;0.90;;
7166;SDS011;3625;51.762;14.320;2022-09-09T12:37:14;1.55;;;0.80;;
7166;SDS011;3625;51.762;14.320;2022-09-09T12:40:02;2.55;;;1.00;;
7166;SDS011;3625;51.762;14.320;2022-09-09T12:42:39;2.03;;;1.00;;
7166;SDS011;3625;51.762;14.320;2022-09-09T12:45:17;1.38;;;0.90;;
7166;SDS011;3625;51.762;14.320;2022-09-09T12:47:51;1.05;;;0.95;;
7166;SDS011;3625;51.762;14.320;2022-09-09T12:50:29;1.67;;;1.10;;
7166;SDS011;3625;51.762;14.320;2022-09-09T12:53:07;1.38;;;1.10;;
7166;SDS011;3625;51.762;14.320;2022-09-09T12:55:56;1.15;;;0.90;;
7166;SDS011;3625;51.762;14.320;2022-09-09T12:58:33;2.15;;;0.88;;
7166;SDS011;3625;51.762;14.320;2022-09-09T13:01:04;2.33;;;1.02;;
7166;SDS011;3625;51.762;14.320;2022-09-09T13:03:43;1.83;;;1.10;;
7166;SDS011;3625;51.762;14.320;2022-09-09T13:06:20;2.40;;;0.90;;
7166;SDS011;3625;51.762;14.320;2022-09-09T13:09:02;2.67;;;1.00;;
7166;SDS011;3625;51.762;14.320;2022-09-09T13:11:32;2.13;;;1.00;;
7166;SDS011;3625;51.762;14.320;2022-09-09T13:14:12;3.83;;;1.00;;
7166;SDS011;3625;51.762;14.320;2022-09-09T13:16:56;2.00;;;1.23;;
7166;SDS011;3625;51.762;14.320;2022-09-09T13:19:32;1.63;;;0.95;;
7166;SDS011;3625;51.762;14.320;2022-09-09T13:22:12;2.13;;;1.10;;
7166;SDS011;3625;51.762;14.320;2022-09-09T13:25:03;0.80;;;0.80;;
7166;SDS011;3625;51.762;14.320;2022-09-09T13:27:51;2.03;;;1.15;;
7166;SDS011;3625;51.762;14.320;2022-09-09T13:30:29;3.00;;;1.00;;
7166;SDS011;3625;51.762;14.320;2022-09-09T13:33:04;2.38;;;1.00;;
7166;SDS011;3625;51.762;14.320;2022-09-09T13:36:05;1.27;;;0.90;;
7166;SDS011;3625;51.762;14.320;2022-09-09T13:38:37;3.33;;;1.10;;
7166;SDS011;3625;51.762;14.320;2022-09-09T13:41:34;3.08;;;1.20;;
7166;SDS011;3625;51.762;14.320;2022-09-09T13:44:14;4.07;;;1.52;;
7166;SDS011;3625;51.762;14.320;2022-09-09T13:47:05;2.08;;;1.10;;
7166;SDS011;3625;51.762;14.320;2022-09-09T13:49:50;1.90;;;1.15;;
7166;SDS011;3625;51.762;14.320;2022-09-09T13:52:19;1.65;;;1.30;;
7166;SDS011;3625;51.762;14.320;2022-09-09T13:54:52;1.98;;;1.25;;
7166;SDS011;3625;51.762;14.320;2022-09-09T13:57:26;1.65;;;1.10;;
7166;SDS011;3625;51.762;14.320;2022-09-09T13:59:57;1.45;;;1.00;;
7166;SDS011;3625;51.762;14.320;2022-09-09T14:02:30;1.30;;;1.20;;
7166;SDS011;3625;51.762;14.320;2022-09-09T14:05:01;2.70;;;1.25;;
7166;SDS011;3625;51.762;14.320;2022-09-09T14:07:34;2.05;;;1.05;;
7166;SDS011;3625;51.762;14.320;2022-09-09T14:10:04;2.60;;;1.10;;
7166;SDS011;3625;51.762;14.320;2022-09-09T14:12:38;1.70;;;1.27;;
7166;SDS011;3625;51.762;14.320;2022-09-09T14:15:07;2.83;;;1.23;;
7166;SDS011;3625;51.762;14.320;2022-09-09T14:17:41;2.03;;;1.13;;
7166;SDS011;3625;51.762;14.320;2022-09-09T14:20:11;1.58;;;0.90;;
7166;SDS011;3625;51.762;14.320;2022-09-09T14:22:52;2.97;;;1.15;;
7166;SDS011;3625;51.762;14.320;2022-09-09T14:25:31;1.77;;;0.80;;
7166;SDS011;3625;51.762;14.320;2022-09-09T14:28:08;3.05;;;1.52;;
7166;SDS011;3625;51.762;14.320;2022-09-09T14:30:48;1.17;;;0.82;;
7166;SDS011;3625;51.762;14.320;2022-09-09T14:33:18;1.10;;;1.00;;
7166;SDS011;3625;51.762;14.320;2022-09-09T14:35:54;1.48;;;1.00;;
7166;SDS011;3625;51.762;14.320;2022-09-09T14:38:47;2.20;;;1.23;;
7166;SDS011;3625;51.762;14.320;2022-09-09T14:41:23;1.58;;;0.90;;
7166;SDS011;3625;51.762;14.320;2022-09-09T14:43:53;2.03;;;0.88;;
7166;SDS011;3625;51.762;14.320;2022-09-09T14:46:42;1.15;;;1.00;;
7166;SDS011;3625;51.762;14.320;2022-09-09T14:49:10;1.95;;;1.00;;
7166;SDS011;3625;51.762;14.320;2022-09-09T14:51:41;1.77;;;1.13;;
7166;SDS011;3625;51.762;14.320;2022-09-09T14:54:10;2.35;;;1.40;;
7166;SDS011;3625;51.762;14.320;2022-09-09T14:56:43;3.33;;;1.55;;
7166;SDS011;3625;51.762;14.320;2022-09-09T14:59:17;3.47;;;1.10;;
7166;SDS011;3625;51.762;14.320;2022-09-09T15:01:46;2.33;;;1.48;;
7166;SDS011;3625;51.762;14.320;2022-09-09T15:04:22;1.75;;;1.45;;
7166;SDS011;3625;51.762;14.320;2022-09-09T15:06:52;2.10;;;1.60;;
7166;SDS011;3625;51.762;14.320;2022-09-09T15:09:27;2.25;;;1.00;;
7166;SDS011;3625;51.762;14.320;2022-09-09T15:11:58;2.05;;;1.02;;
7166;SDS011;3625;51.762;14.320;2022-09-09T15:14:31;3.10;;;1.30;;
7166;SDS011;3625;51.762;14.320;2022-09-09T15:17:16;1.85;;;1.30;;
7166;SDS011;3625;51.762;14.320;2022-09-09T15:19:45;1.70;;;1.15;;
7166;SDS011;3625;51.762;14.320;2022-09-09T15:22:16;3.17;;;1.33;;
7166;SDS011;3625;51.762;14.320;2022-09-09T15:24:48;1.83;;;1.20;;
7166;SDS011;3625;51.762;14.320;2022-09-09T15:27:22;2.10;;;1.13;;
7166;SDS011;3625;51.762;14.320;2022-09-09T15:29:52;4.75;;;1.33;;
7166;SDS011;3625;51.762;14.320;2022-09-09T15:32:21;1.33;;;1.17;;
7166;SDS011;3625;51.762;14.320;2022-09-09T15:34:50;2.85;;;1.27;;
7166;SDS011;3625;51.762;14.320;2022-09-09T15:37:19;2.78;;;1.08;;
7166;SDS011;3625;51.762;14.320;2022-09-09T15:39:48;3.63;;;1.40;;
7166;SDS011;3625;51.762;14.320;2022-09-09T15:42:19;1.98;;;1.30;;
7166;SDS011;3625;51.762;14.320;2022-09-09T15:44:47;2.95;;;1.50;;
7166;SDS011;3625;51.762;14.320;2022-09-09T15:47:17;3.33;;;1.10;;
7166;SDS011;3625;51.762;14.320;2022-09-09T15:49:46;3.70;;;1.30;;
7166;SDS011;3625;51.762;14.320;2022-09-09T15:52:14;3.30;;;1.38;;
7166;SDS011;3625;51.762;14.320;2022-09-09T15:54:45;1.70;;;1.10;;
7166;SDS011;3625;51.762;14.320;2022-09-09T15:57:27;2.13;;;1.25;;
7166;SDS011;3625;51.762;14.320;2022-09-09T15:59:55;3.78;;;1.55;;
7166;SDS011;3625;51.762;14.320;2022-09-09T16:02:27;2.67;;;1.30;;
7166;SDS011;3625;51.762;14.320;2022-09-09T16:04:56;2.72;;;1.17;;
7166;SDS011;3625;51.762;14.320;2022-09-09T16:07:27;1.67;;;1.20;;
7166;SDS011;3625;51.762;14.320;2022-09-09T16:09:56;2.17;;;1.13;;
7166;SDS011;3625;51.762;14.320;2022-09-09T16:12:25;3.13;;;1.20;;
7166;SDS011;3625;51.762;14.320;2022-09-09T16:14:55;1.55;;;1.00;;
7166;SDS011;3625;51.762;14.320;2022-09-09T16:17:24;2.90;;;1.23;;
7166;SDS011;3625;51.762;14.320;2022-09-09T16:19:55;2.33;;;1.45;;